Latest Weather Observations for Ferny Creek

IDV60801

Issued at 2:05 pm EST Wednesday 3 September 2014 (issued every 30 minutes, with the page automatically refreshed every 10 minutes)

About weather observations | Map of weather stations | Latest weather observations for VIC | Other Formats
Station Details ID: 086266 Name: FERNY CREEK Lat: -37.87 Lon: 145.35 Height: 512.9 m
Data from the previous 72 hours. | See also: Recent months at Ferny Creek
Date/Time
EST
Temp
°C
App
Temp
°C
Dew
Point
Rel
Hum
%
Delta-T
°C
Wind Press
QNH
hPa
Press
MSL
hPa
Rain
since 9 am
mm
Dir
 
Spd
km/h
Gust
km/h
Spd
kts
Gust
kts
03/02:00pm 10.0 7.1 1.6 56 3.6 ESE 6 11 3 6 1019.6 1019.9 0.0
03/01:30pm 8.8 5.8 2.2 63 2.8 ESE 7 17 4 9 1020.0 1020.3 0.0
03/01:00pm 9.1 6.2 2.7 64 2.8 SE 7 15 4 8 1020.2 1020.6 0.0
03/12:30pm 8.5 5.5 2.3 65 2.7 ESE 7 13 4 7 1020.4 1020.8 0.0
03/12:00pm 8.8 6.1 2.6 65 2.7 ESE 6 9 3 5 1020.8 1021.2 0.0
03/11:30am 8.4 5.6 2.0 64 2.7 SSE 6 15 3 8 1021.2 1021.5 0.0
03/11:00am 8.9 5.8 3.7 70 2.3 E 9 17 5 9 1021.3 1021.6 0.0
03/10:30am 8.5 4.9 2.9 68 2.5 E 11 22 6 12 1021.6 1021.9 0.0
03/10:00am 8.7 6.1 3.1 68 2.5 ESE 6 11 3 6 1022.2 1022.6 0.0
03/09:30am 8.2 5.4 3.3 71 2.2 ESE 7 15 4 8 1022.4 1022.8 0.0
03/09:00am 7.1 4.4 3.5 78 1.6 ESE 7 15 4 8 1022.4 1022.8 3.0
03/08:30am 6.0 3.1 2.8 80 1.4 ESE 7 15 4 8 1022.4 1022.8 3.0
03/08:00am 5.7 3.0 2.4 79 1.4 ESE 6 13 3 7 1022.4 1022.8 3.0
03/07:30am 5.5 3.2 2.8 83 1.1 E 4 9 2 5 1022.1 1022.5 3.0
03/07:00am 4.4 1.7 2.4 87 0.8 ESE 6 13 3 7 1021.7 1022.0 3.0
03/06:30am 4.2 1.8 2.1 86 0.9 ESE 4 9 2 5 1021.5 1021.8 3.0
03/06:00am 4.5 2.5 2.4 86 0.9 SSE 2 7 1 4 1021.3 1021.6 3.0
03/05:30am 4.3 2.3 2.3 87 0.8 SE 2 9 1 5 1021.4 1021.7 3.0
03/05:00am 4.3 1.9 2.3 87 0.8 SSW 4 9 2 5 1021.3 1021.6 3.0
03/04:30am 4.5 2.2 3.0 90 0.6 S 4 7 2 4 1021.4 1021.7 3.0
03/04:00am 4.5 2.7 3.2 91 0.5 W 2 9 1 5 1021.3 1021.6 3.0
03/03:30am 4.8 2.6 3.6 92 0.5 SE 4 11 2 6 1021.2 1021.5 2.6
03/03:00am 5.2 3.0 3.4 88 0.8 WSW 4 9 2 5 1021.2 1021.5 2.2
03/02:30am 5.2 3.5 4.0 92 0.5 W 2 4 1 2 1021.5 1021.8 2.2
03/02:00am 5.2 3.2 4.2 93 0.4 ESE 4 9 2 5 1021.6 1021.9 2.2
03/01:30am 5.3 3.2 4.0 91 0.6 S 4 13 2 7 1021.6 1021.9 2.2
03/01:00am 5.4 3.0 4.2 92 0.5 SSE 6 9 3 5 1021.6 1021.9 2.2
03/12:30am 5.4 3.3 3.9 90 0.7 S 4 9 2 5 1021.5 1021.8 2.2
03/12:00am 5.6 3.5 3.9 89 0.7 SSW 4 7 2 4 1021.6 1021.9 2.2
 
Date/Time
EST
Temp
°C
App
Temp
°C
Dew
Point
Rel
Hum
%
Delta-T
°C
Wind Press
QNH
hPa
Press
MSL
hPa
Rain
since 9 am
mm
Dir
 
Spd
km/h
Gust
km/h
Spd
kts
Gust
kts
02/11:30pm 5.6 3.1 3.8 88 0.8 SSW 6 13 3 7 1021.7 1022.0 2.2
02/11:00pm 5.7 3.2 3.7 87 0.9 SW 6 9 3 5 1021.8 1022.1 2.2
02/10:30pm 5.7 3.5 3.5 86 1.0 SSW 4 15 2 8 1021.9 1022.3 2.2
02/10:00pm 5.8 3.6 3.3 84 1.1 S 4 11 2 6 1021.9 1022.3 2.2
02/09:30pm 5.8 3.6 3.1 83 1.2 S 4 11 2 6 1021.8 1022.1 2.2
02/09:00pm 5.3 3.0 2.8 84 1.1 SSW 4 7 2 4 1021.9 1022.3 2.2
02/08:30pm 5.5 3.2 2.8 83 1.1 SSE 4 13 2 7 1021.8 1022.1 2.2
02/08:00pm 5.0 3.1 2.7 85 1.0 E 2 7 1 4 1021.7 1022.0 2.2
02/07:30pm 5.4 3.1 2.8 83 1.1 SE 4 7 2 4 1021.5 1021.8 2.2
02/07:00pm 5.5 3.2 2.8 83 1.1 SE 4 11 2 6 1021.2 1021.5 2.2
02/06:30pm 5.7 3.4 2.7 81 1.3 S 4 11 2 6 1020.8 1021.2 2.2
02/06:00pm 6.1 3.8 2.7 79 1.4 SE 4 7 2 4 1020.5 1020.9 2.2
02/05:30pm 6.9 4.2 2.6 74 1.8 SE 6 13 3 7 1020.1 1020.4 2.2
02/05:00pm 7.0 3.9 1.1 66 2.4 S 7 19 4 10 1019.7 1020.0 2.2
02/04:30pm 7.7 4.2 1.1 63 2.7 SSE 9 20 5 11 1019.4 1019.7 2.2
02/04:00pm 8.4 5.4 1.8 63 2.8 SSW 7 26 4 14 1019.2 1019.5 2.2
02/03:30pm 8.8 5.3 1.2 59 3.2 S 9 22 5 12 1018.9 1019.2 2.2
02/03:00pm 9.3 6.4 1.2 57 3.4 S 6 19 3 10 1018.7 1019.1 2.2
02/02:30pm 9.2 6.1 1.6 59 3.2 SSW 7 19 4 10 1018.4 1018.7 2.2
02/02:00pm 9.4 6.1 2.3 61 3.1 SSW 9 17 5 9 1018.0 1018.3 2.2
02/01:30pm 9.2 6.2 4.0 70 2.3 S 9 22 5 12 1017.9 1018.2 2.2
02/01:00pm 8.8 5.8 5.9 82 1.4 SSW 11 26 6 14 1017.7 1018.0 2.2
02/12:30pm 8.2 6.4 7.3 94 0.4 SSE 6 19 3 10 1017.5 1017.8 2.2
02/12:00pm 6.7 4.9 5.2 90 0.7 SSE 4 9 2 5 1017.7 1018.0 2.0
02/11:30am 8.3 6.0 4.9 79 1.6 S 6 15 3 8 1017.5 1017.8 0.2
02/11:00am 8.8 6.3 5.0 77 1.7 SSW 7 19 4 10 1017.3 1017.6 0.2
02/10:30am 8.9 6.6 5.6 80 1.5 S 7 22 4 12 1017.4 1017.7 0.2
02/10:00am 8.6 6.5 5.7 82 1.4 SSW 6 9 3 5 1017.1 1017.4 0.2
02/09:30am 8.6 6.7 6.7 88 0.9 SW 6 15 3 8 1017.0 1017.3 0.0
02/09:00am 7.2 5.1 5.7 90 0.7 WSW 6 17 3 9 1016.7 1017.0 19.2
02/08:30am 6.3 4.5 5.6 95 0.3 WSW 4 9 2 5 1016.4 1016.7 19.2
02/08:00am 5.4 3.0 4.4 93 0.4 WSW 6 13 3 7 1016.1 1016.4 19.2
02/07:30am 5.8 4.0 5.2 96 0.3 S 4 9 2 5 1015.8 1016.1 18.8
02/07:00am 5.9 3.7 5.5 97 0.2 WSW 6 17 3 9 1015.3 1015.6 18.8
02/06:30am 6.1 3.8 5.7 97 0.2 WSW 7 19 4 10 1014.9 1015.1 18.8
02/06:00am 6.3 4.0 5.9 97 0.2 W 7 15 4 8 1014.4 1014.7 18.8
02/05:30am 6.2 4.5 5.8 97 0.2 W 4 7 2 4 1014.1 1014.4 18.8
02/05:00am 5.5 3.6 4.9 96 0.3 W 4 11 2 6 1013.6 1013.9 18.8
02/04:30am 5.8 3.6 5.4 97 0.2 SW 6 11 3 6 1013.3 1013.5 18.8
02/04:00am 5.6 3.2 5.2 97 0.2 W 7 19 4 10 1013.1 1013.3 18.6
02/03:30am 6.3 4.6 5.9 97 0.2 W 4 9 2 5 1013.0 1013.2 16.8
02/03:00am 6.3 4.2 5.9 97 0.2 W 6 17 3 9 1012.9 1013.1 16.8
02/02:30am 6.0 3.9 5.6 97 0.2 W 6 17 3 9 1012.5 1012.8 16.8
02/02:00am 6.3 4.6 5.9 97 0.2 W 4 9 2 5 1012.7 1012.9 16.8
02/01:30am 6.6 4.4 6.2 97 0.2 W 7 22 4 12 1012.4 1012.7 16.8
02/01:00am 6.8 5.2 6.4 97 0.2 WSW 4 9 2 5 1012.2 1012.5 16.8
02/12:30am 7.0 5.5 6.6 97 0.2 W 4 7 2 4 1012.2 1012.5 15.6
02/12:00am 7.0 5.8 6.6 97 0.2 W 2 7 1 4 1012.2 1012.5 15.6
 
Date/Time
EST
Temp
°C
App
Temp
°C
Dew
Point
Rel
Hum
%
Delta-T
°C
Wind Press
QNH
hPa
Press
MSL
hPa
Rain
since 9 am
mm
Dir
 
Spd
km/h
Gust
km/h
Spd
kts
Gust
kts
01/11:30pm 7.2 6.1 6.8 97 0.2 W 2 4 1 2 1012.0 1012.3 15.4
01/11:00pm 7.0 5.5 6.6 97 0.2 W 4 9 2 5 1011.8 1012.0 15.4
01/10:30pm 7.0 5.4 6.4 96 0.3 W 4 7 2 4 1011.8 1012.0 15.4
01/10:00pm 7.3 6.2 6.7 96 0.3 WSW 2 7 1 4 1012.0 1012.3 15.4
01/09:30pm 7.5 6.0 6.9 96 0.3 W 4 9 2 5 1011.8 1012.0 15.4
01/09:00pm 7.7 5.9 7.3 97 0.2 W 6 15 3 8 1011.5 1011.7 15.0
01/08:30pm 7.8 5.9 7.4 97 0.2 WSW 7 20 4 11 1011.2 1011.4 15.0
01/08:00pm 7.8 6.4 7.4 97 0.2 WSW 4 11 2 6 1011.0 1011.2 15.0
01/07:30pm 7.8 5.9 7.4 97 0.2 WSW 7 15 4 8 1010.5 1010.8 15.0
01/07:00pm 7.7 5.7 7.1 96 0.3 WSW 7 13 4 7 1010.2 1010.4 14.8
01/06:30pm 7.5 5.6 6.9 96 0.3 W 6 11 3 6 1010.1 1010.3 14.4
01/06:00pm 7.5 6.4 6.9 96 0.3 W 2 6 1 3 1009.8 1010.0 13.0
01/05:30pm 7.6 5.8 7.0 96 0.3 WSW 6 19 3 10 1009.3 1009.5 11.8
01/05:00pm 7.8 6.8 7.2 96 0.3 W 2 6 1 3 1008.9 1009.1 9.6
01/04:30pm 7.8 6.7 7.1 95 0.3 W 2 7 1 4 1008.8 1009.0 8.8
01/04:00pm 7.6 6.5 6.7 94 0.4 W 2 6 1 3 1008.8 1009.0 8.6
01/03:30pm 8.0 6.6 7.4 96 0.3 W 4 7 2 4 1008.4 1008.6 8.4
01/03:00pm 8.5 7.3 8.1 97 0.2 SW 4 9 2 5 1008.2 1008.4 6.2
01/02:30pm 8.4 6.6 8.0 97 0.2 WNW 7 15 4 8 1008.1 1008.3 6.0
01/02:00pm 8.3 6.6 7.7 96 0.3 NW 6 11 3 6 1008.3 1008.5 5.4
01/01:30pm 8.2 6.5 7.4 95 0.4 WNW 6 13 3 7 1008.7 1008.9 4.8
01/01:00pm 8.2 6.8 7.1 93 0.5 NNW 4 13 2 7 1008.6 1008.7 3.2
01/12:30pm 8.1 6.2 6.9 92 0.6 NNW 6 11 3 6 1008.8 1009.0 2.6
01/12:00pm 9.1 7.4 6.0 81 1.5 NW 4 9 2 5 1008.9 1009.1 0.4
01/11:30am 10.8 8.1 3.6 61 3.3 NNW 7 15 4 8 1009.0 1009.2 0.0
01/11:00am 11.8 9.0 3.1 55 3.9 NW 7 17 4 9 1009.2 1009.4 0.0
01/10:30am 12.1 9.6 3.6 56 3.9 NW 6 17 3 9 1009.1 1009.3 0.0
01/10:00am 12.0 9.3 3.5 56 3.9 NNW 7 19 4 10 1009.4 1009.6 0.0
01/09:30am 12.2 9.4 2.9 53 4.2 NNW 7 15 4 8 1009.2 1009.7 0.0
01/09:00am 12.4 9.2 3.1 53 4.2 N 9 20 5 11 1009.1 1009.6 0.0
01/08:30am 12.5 8.1 2.9 52 4.4 N 15 44 8 24 1008.8 1009.3 0.0
01/08:00am 12.5 9.3 3.2 53 4.3 N 9 26 5 14 1008.4 1009.0 0.0
01/07:30am 12.9 8.9 2.7 50 4.6 N 13 30 7 16 1008.6 1009.1 0.0
01/07:00am 13.0 9.0 2.6 49 4.7 N 13 35 7 19 1008.8 1009.3 0.0
01/06:30am 13.3 9.6 2.5 48 4.9 N 11 32 6 17 1009.0 1009.5 0.0
01/06:00am 12.9 9.3 2.7 50 4.6 N 11 24 6 13 1009.6 1010.2 0.0
01/05:30am 13.5 8.3 2.4 47 5.0 NNE 19 43 10 23 1008.9 1009.4 0.0
01/05:00am 13.3 8.2 2.8 49 4.8 NNE 19 35 10 19 1008.6 1009.1 0.0
01/04:30am 13.3 8.2 2.8 49 4.8 NNE 19 35 10 19 1009.3 1009.8 0.0
01/04:00am 13.4 8.1 2.9 49 4.8 NNE 20 52 11 28 1009.2 1009.7 0.0
01/03:30am 13.5 8.4 3.0 49 4.8 N 19 37 10 20 1009.7 1010.3 0.0
01/03:00am 13.5 8.3 3.3 50 4.7 NNE 20 41 11 22 1009.7 1010.3 0.0
01/02:30am 13.3 8.1 3.4 51 4.6 NNE 20 37 11 20 1010.0 1010.6 0.0
01/02:00am 13.4 8.8 3.8 52 4.5 N 17 41 9 22 1010.9 1011.4 0.0
01/01:30am 13.4 8.4 3.8 52 4.5 NNE 19 35 10 19 1011.2 1011.7 0.0
01/01:00am 13.9 9.3 3.7 50 4.8 N 17 30 9 16 1011.4 1012.0 0.0
01/12:30am 14.1 9.5 3.6 49 4.9 NNE 17 37 9 20 1011.2 1011.7 0.0
01/12:00am 14.1 9.5 3.8 50 4.8 NNE 17 37 9 20 1011.0 1011.5 0.0
 
Date/Time
EST
Temp
°C
App
Temp
°C
Dew
Point
Rel
Hum
%
Delta-T
°C
Wind Press
QNH
hPa
Press
MSL
hPa
Rain
since 9 am
mm
Dir
 
Spd
km/h
Gust
km/h
Spd
kts
Gust
kts
31/11:30pm 13.9 9.0 4.2 52 4.6 NNE 19 35 10 19 1011.4 1012.0 0.0
31/11:00pm 14.2 10.5 4.2 51 4.7 NNE 13 28 7 15 1012.1 1012.7 0.0
31/10:30pm 14.4 9.9 4.4 51 4.8 N 17 41 9 22 1012.7 1013.2 0.0
31/10:00pm 13.9 10.3 4.8 54 4.3 NNE 13 24 7 13 1013.1 1013.7 0.0
31/09:30pm 14.0 10.0 4.9 54 4.4 NNE 15 37 8 20 1013.4 1014.0 0.0
31/09:00pm 13.7 10.1 5.1 56 4.1 NNE 13 26 7 14 1013.6 1014.2 0.0
31/08:30pm 13.7 10.1 5.1 56 4.1 NNE 13 26 7 14 1014.0 1014.6 0.0
31/08:00pm 13.6 10.0 5.0 56 4.1 NNE 13 26 7 14 1014.2 1014.8 0.0
31/07:30pm 13.7 10.1 4.8 55 4.2 NNE 13 30 7 16 1014.3 1014.9 0.0
31/07:00pm 13.6 10.1 5.3 57 4.0 NNE 13 28 7 15 1014.5 1015.2 0.0
31/06:30pm 13.8 10.7 5.4 57 4.1 NNE 11 24 6 13 1014.9 1015.5 0.0
31/06:00pm 13.9 10.5 5.8 58 3.9 N 13 30 7 16 1015.0 1015.6 0.0
31/05:30pm 14.1 11.0 5.5 56 4.2 N 11 22 6 12 1014.9 1015.5 0.0
31/05:00pm 14.4 11.7 5.7 56 4.2 NNE 9 20 5 11 1015.0 1015.6 0.0
31/04:30pm 14.9 12.8 6.5 57 4.2 N 7 17 4 9 1015.0 1015.6 0.0
31/04:00pm 15.6 13.4 6.3 54 4.6 N 7 24 4 13 1015.3 1015.9 0.0
31/03:30pm 15.4 13.2 6.4 55 4.5 NNE 7 15 4 8 1015.5 1016.1 0.0
31/03:00pm 15.2 12.6 6.2 55 4.5 NNE 9 19 5 10 1015.7 1016.3 0.0
31/02:30pm 15.5 13.0 6.5 55 4.5 NE 9 19 5 10 1016.0 1016.6 0.0

Other Formats:

Comma delimited format used in spreadsheet applications
http://www.bom.gov.au/fwo/IDV60801/IDV60801.94872.axf

JavaScript Object Notation format (JSON) in row-major order
http://www.bom.gov.au/fwo/IDV60801/IDV60801.94872.json